createdAt,value
2023-04-20T00:01:48.275Z,1.67
2023-04-20T00:04:16.443Z,1.30
2023-04-20T00:06:44.119Z,1.20
2023-04-20T00:09:15.602Z,1.00
2023-04-20T00:11:42.712Z,1.75
2023-04-20T00:14:09.654Z,1.35
2023-04-20T00:16:36.639Z,1.67
2023-04-20T00:19:03.597Z,1.38
2023-04-20T00:21:30.755Z,1.25
2023-04-20T00:23:57.694Z,1.45
2023-04-20T00:26:24.642Z,1.77
2023-04-20T00:28:53.963Z,1.95
2023-04-20T00:31:21.247Z,1.77
2023-04-20T00:33:49.105Z,1.70
2023-04-20T00:36:16.275Z,1.65
2023-04-20T00:38:43.250Z,1.70
2023-04-20T00:41:10.506Z,1.70
2023-04-20T00:43:37.673Z,1.85
2023-04-20T00:46:04.771Z,1.95
2023-04-20T00:48:31.799Z,1.40
2023-04-20T00:50:58.865Z,1.80
2023-04-20T00:53:25.856Z,2.30
2023-04-20T00:55:53.110Z,1.70
2023-04-20T00:58:20.109Z,1.92
2023-04-20T01:00:47.197Z,2.03
2023-04-20T01:03:14.749Z,1.50
2023-04-20T01:05:41.972Z,1.73
2023-04-20T01:08:09.019Z,1.88
2023-04-20T01:10:36.304Z,1.98
2023-04-20T01:13:06.369Z,2.20
2023-04-20T01:15:35.224Z,2.03
2023-04-20T01:18:03.186Z,1.95
2023-04-20T01:20:30.456Z,1.58
2023-04-20T01:22:57.435Z,1.55
2023-04-20T01:25:24.680Z,2.10
2023-04-20T01:27:53.359Z,2.03
2023-04-20T01:30:20.319Z,2.10
2023-04-20T01:32:47.497Z,2.40
2023-04-20T01:35:15.934Z,2.45
2023-04-20T01:37:45.259Z,1.85
2023-04-20T01:40:14.902Z,3.20
2023-04-20T01:42:41.915Z,2.17
2023-04-20T01:45:09.327Z,2.30
2023-04-20T01:47:37.001Z,2.10
2023-04-20T01:50:04.340Z,2.20
2023-04-20T01:52:31.370Z,2.28
2023-04-20T01:54:58.309Z,2.20
2023-04-20T01:57:25.301Z,2.42
2023-04-20T01:59:52.236Z,2.50
2023-04-20T02:02:19.420Z,2.25
2023-04-20T02:04:46.387Z,2.53
2023-04-20T02:07:13.352Z,2.45
2023-04-20T02:09:40.456Z,2.28
2023-04-20T02:12:07.430Z,2.72
2023-04-20T02:14:34.411Z,2.10
2023-04-20T02:17:02.098Z,2.45
2023-04-20T02:19:29.096Z,2.22
2023-04-20T02:21:56.118Z,2.28
2023-04-20T02:24:23.156Z,2.08
2023-04-20T02:26:50.268Z,2.30
2023-04-20T02:29:17.628Z,2.10
2023-04-20T02:31:45.124Z,3.05
2023-04-20T02:34:16.251Z,2.33
2023-04-20T02:36:43.217Z,2.30
2023-04-20T02:39:13.203Z,2.47
2023-04-20T02:41:40.228Z,2.42
2023-04-20T02:44:07.455Z,2.38
2023-04-20T02:46:37.082Z,2.50
2023-04-20T02:49:04.898Z,2.63
2023-04-20T02:51:36.489Z,2.38
2023-04-20T02:54:03.774Z,2.50
2023-04-20T02:56:32.015Z,1.92
2023-04-20T02:59:04.099Z,2.85
2023-04-20T03:01:49.660Z,1.98
2023-04-20T03:04:22.066Z,2.40
2023-04-20T03:06:57.008Z,2.40
2023-04-20T03:09:28.134Z,2.22
2023-04-20T03:12:13.325Z,2.30
2023-04-20T03:14:49.288Z,1.92
2023-04-20T03:17:19.282Z,2.42
2023-04-20T03:19:46.563Z,2.60
2023-04-20T03:22:13.562Z,2.17
2023-04-20T03:24:40.848Z,2.30
2023-04-20T03:27:19.177Z,2.22
2023-04-20T03:30:00.823Z,3.20
2023-04-20T03:32:28.806Z,2.05
2023-04-20T03:34:56.850Z,2.65
2023-04-20T03:37:23.949Z,2.10
2023-04-20T03:39:52.214Z,2.58
2023-04-20T03:42:19.572Z,3.13
2023-04-20T03:44:48.802Z,2.22
2023-04-20T03:47:15.944Z,2.38
2023-04-20T03:49:43.008Z,2.55
2023-04-20T03:52:12.412Z,2.10
2023-04-20T03:54:39.510Z,2.40
2023-04-20T03:57:06.749Z,3.38
2023-04-20T03:59:33.709Z,2.92
2023-04-20T04:02:02.947Z,2.35
2023-04-20T04:04:30.145Z,2.45
2023-04-20T04:06:58.649Z,2.00
2023-04-20T04:09:28.478Z,2.13
2023-04-20T04:11:55.617Z,2.30
2023-04-20T04:14:24.022Z,2.78
2023-04-20T04:16:50.951Z,2.10
2023-04-20T04:19:18.723Z,2.65
2023-04-20T04:21:45.947Z,2.10
2023-04-20T04:24:14.265Z,2.40
2023-04-20T04:27:06.086Z,2.45
2023-04-20T04:29:38.725Z,1.52
2023-04-20T04:32:09.613Z,2.25
2023-04-20T04:34:38.629Z,2.58
2023-04-20T04:37:05.720Z,2.13
2023-04-20T04:42:19.015Z,2.45
2023-04-20T04:44:47.493Z,2.50
2023-04-20T04:47:22.842Z,2.10
2023-04-20T04:49:50.159Z,2.45
2023-04-20T04:52:17.161Z,2.38
2023-04-20T04:54:44.119Z,2.13
2023-04-20T04:57:11.121Z,2.88
2023-04-20T04:59:38.048Z,2.35
2023-04-20T05:02:05.063Z,2.38
2023-04-20T05:04:32.240Z,2.70
2023-04-20T05:06:59.345Z,2.47
2023-04-20T05:09:26.654Z,2.35
2023-04-20T05:11:53.634Z,3.00
2023-04-20T05:14:20.595Z,2.80
2023-04-20T05:16:47.766Z,2.08
2023-04-20T05:19:14.788Z,2.15
2023-04-20T05:21:41.819Z,2.05
2023-04-20T05:24:08.803Z,2.90
2023-04-20T05:26:35.798Z,2.17
2023-04-20T05:29:02.812Z,2.92
2023-04-20T05:31:30.972Z,2.65
2023-04-20T05:33:58.312Z,2.58
2023-04-20T05:36:25.393Z,2.28
2023-04-20T05:38:52.301Z,2.05
2023-04-20T05:41:19.624Z,2.50
2023-04-20T05:43:46.518Z,3.13
2023-04-20T05:46:13.448Z,3.03
2023-04-20T05:48:40.536Z,2.83
2023-04-20T05:51:07.434Z,2.42
2023-04-20T05:53:34.317Z,2.63
2023-04-20T05:56:01.376Z,2.67
2023-04-20T05:58:28.506Z,3.13
2023-04-20T06:00:55.817Z,2.80
2023-04-20T06:03:22.948Z,2.65
2023-04-20T06:05:50.017Z,3.25
2023-04-20T06:08:17.445Z,2.67
2023-04-20T06:10:44.466Z,2.25
2023-04-20T06:13:11.627Z,2.40
2023-04-20T06:15:38.560Z,2.28
2023-04-20T06:18:05.760Z,2.42
2023-04-20T06:20:32.773Z,2.70
2023-04-20T06:22:59.750Z,3.92
2023-04-20T06:25:26.727Z,3.13
2023-04-20T06:27:53.652Z,3.38
2023-04-20T06:30:20.910Z,3.60
2023-04-20T06:32:47.936Z,3.67
2023-04-20T06:35:15.593Z,2.95
2023-04-20T06:37:42.541Z,2.67
2023-04-20T06:40:09.808Z,3.33
2023-04-20T06:42:40.058Z,2.95
2023-04-20T06:45:08.411Z,2.78
2023-04-20T06:47:35.524Z,2.90
2023-04-20T06:50:07.359Z,2.90
2023-04-20T06:52:34.303Z,2.85
2023-04-20T06:55:01.557Z,2.80
2023-04-20T06:57:28.664Z,2.75
2023-04-20T06:59:55.662Z,3.20
2023-04-20T07:02:22.629Z,2.65
2023-04-20T07:04:49.676Z,3.08
2023-04-20T07:07:16.730Z,4.05
2023-04-20T07:09:43.922Z,3.35
2023-04-20T07:12:11.438Z,2.88
2023-04-20T07:14:38.684Z,3.92
2023-04-20T07:17:05.660Z,2.47
2023-04-20T07:19:32.692Z,3.42
2023-04-20T07:21:59.711Z,3.58
2023-04-20T07:24:26.604Z,3.78
2023-04-20T07:26:55.612Z,7.20
2023-04-20T07:29:22.833Z,6.18
2023-04-20T07:31:49.799Z,5.03
2023-04-20T07:34:16.949Z,3.65
2023-04-20T07:36:44.276Z,3.45
2023-04-20T07:39:11.286Z,4.30
2023-04-20T07:41:38.249Z,3.33
2023-04-20T07:44:05.866Z,4.80
2023-04-20T07:46:32.814Z,5.30
2023-04-20T07:48:59.819Z,3.85
2023-04-20T07:51:30.252Z,6.15
2023-04-20T07:53:57.440Z,6.70
2023-04-20T07:56:24.433Z,6.43
2023-04-20T07:58:51.526Z,4.30
2023-04-20T08:01:18.545Z,4.13
2023-04-20T08:03:45.821Z,3.80
2023-04-20T08:06:12.845Z,4.63
2023-04-20T08:08:39.775Z,3.78
2023-04-20T08:11:08.139Z,4.22
2023-04-20T08:13:37.262Z,5.55
2023-04-20T08:16:04.458Z,8.02
2023-04-20T08:18:31.470Z,6.57
2023-04-20T08:20:58.486Z,5.82
2023-04-20T08:23:28.043Z,10.23
2023-04-20T08:25:55.323Z,6.68
2023-04-20T08:30:56.734Z,7.88
2023-04-20T08:33:24.082Z,4.85
2023-04-20T08:35:52.995Z,10.43
2023-04-20T08:38:30.661Z,5.53
2023-04-20T08:41:00.726Z,5.07
2023-04-20T08:43:27.678Z,4.88
2023-04-20T08:45:59.909Z,8.30
2023-04-20T08:48:34.442Z,7.32
2023-04-20T08:51:05.611Z,6.63
2023-04-20T08:53:33.339Z,5.80
2023-04-20T08:56:00.396Z,4.60
2023-04-20T08:58:32.811Z,4.32
2023-04-20T09:01:01.123Z,3.60
2023-04-20T09:03:42.672Z,4.80
2023-04-20T09:06:18.084Z,4.20
2023-04-20T09:08:46.669Z,3.75
2023-04-20T09:11:28.017Z,5.78
2023-04-20T09:14:10.072Z,4.05
2023-04-20T09:16:39.549Z,4.07
2023-04-20T09:19:09.231Z,4.88
2023-04-20T09:21:36.689Z,3.60
2023-04-20T09:24:09.327Z,3.33
2023-04-20T09:26:36.846Z,4.15
2023-04-20T09:29:04.524Z,3.90
2023-04-20T09:31:31.486Z,4.05
2023-04-20T09:34:01.580Z,3.83
2023-04-20T09:36:39.350Z,4.28
2023-04-20T09:39:16.200Z,3.33
2023-04-20T09:41:44.094Z,4.32
2023-04-20T09:44:12.851Z,3.15
2023-04-20T09:46:41.613Z,3.75
2023-04-20T09:49:12.319Z,3.42
2023-04-20T09:51:45.107Z,3.00
2023-04-20T09:54:13.149Z,2.80
2023-04-20T09:56:41.250Z,3.00
2023-04-20T09:59:08.550Z,3.17
2023-04-20T10:01:36.612Z,3.00
2023-04-20T10:04:08.279Z,3.40
2023-04-20T10:06:36.777Z,4.25
2023-04-20T10:09:07.427Z,3.05
2023-04-20T10:11:52.553Z,2.85
2023-04-20T10:14:24.809Z,3.40
2023-04-20T10:17:06.572Z,3.80
2023-04-20T10:19:44.908Z,2.45
2023-04-20T10:22:14.143Z,3.42
2023-04-20T10:24:41.177Z,2.75
2023-04-20T10:27:25.111Z,2.72
2023-04-20T10:29:52.062Z,3.70
2023-04-20T10:32:26.870Z,3.58
2023-04-20T10:35:11.264Z,2.70
2023-04-20T10:37:51.792Z,3.03
2023-04-20T10:40:27.892Z,2.75
2023-04-20T10:42:54.856Z,3.30
2023-04-20T10:45:22.050Z,2.72
2023-04-20T10:47:49.170Z,2.65
2023-04-20T10:50:18.182Z,3.20
2023-04-20T10:52:45.198Z,2.42
2023-04-20T10:55:24.664Z,3.00
2023-04-20T10:57:52.217Z,2.80
2023-04-20T11:00:22.560Z,2.30
2023-04-20T11:02:54.948Z,2.58
2023-04-20T11:05:24.670Z,2.60
2023-04-20T11:07:56.350Z,2.58
2023-04-20T11:10:37.649Z,4.20
2023-04-20T11:13:04.670Z,2.63
2023-04-20T11:15:35.509Z,3.05
2023-04-20T11:18:10.714Z,3.40
2023-04-20T11:20:38.714Z,2.53
2023-04-20T11:23:06.029Z,2.80
2023-04-20T11:25:33.187Z,2.88
2023-04-20T11:28:09.911Z,3.25
2023-04-20T11:30:43.488Z,3.35
2023-04-20T11:33:10.955Z,3.08
2023-04-20T11:35:40.285Z,3.33
2023-04-20T11:38:08.292Z,3.45
2023-04-20T11:40:35.937Z,2.42
2023-04-20T11:43:04.836Z,3.55
2023-04-20T11:45:36.632Z,2.92
2023-04-20T11:48:05.712Z,3.00
2023-04-20T11:50:32.932Z,2.92
2023-04-20T11:52:59.891Z,3.40
2023-04-20T11:55:26.934Z,2.97
2023-04-20T11:57:53.897Z,2.90
2023-04-20T12:00:21.970Z,3.72
2023-04-20T12:02:49.008Z,3.35
2023-04-20T12:05:16.696Z,2.95
2023-04-20T12:07:43.941Z,2.88
2023-04-20T12:10:11.064Z,3.38
2023-04-20T12:12:38.514Z,3.25
2023-04-20T12:15:06.702Z,2.60
2023-04-20T12:17:33.881Z,2.67
2023-04-20T12:20:01.206Z,3.60
2023-04-20T12:22:28.346Z,2.70
2023-04-20T12:24:55.300Z,3.13
2023-04-20T12:27:22.499Z,3.70
2023-04-20T12:29:49.451Z,3.60
2023-04-20T12:32:16.421Z,3.47
2023-04-20T12:34:43.411Z,3.35
2023-04-20T12:37:10.351Z,3.10
2023-04-20T12:39:37.347Z,4.18
2023-04-20T12:42:04.360Z,3.08
2023-04-20T12:44:31.344Z,3.78
2023-04-20T12:46:58.315Z,3.72
2023-04-20T12:49:25.387Z,4.03
2023-04-20T12:51:52.305Z,4.10
2023-04-20T12:54:19.610Z,3.83
2023-04-20T12:56:46.984Z,3.05
2023-04-20T12:59:14.292Z,3.35
2023-04-20T13:01:41.581Z,3.80
2023-04-20T13:04:08.800Z,4.20
2023-04-20T13:06:36.025Z,3.60
2023-04-20T13:09:04.133Z,3.50
2023-04-20T13:11:31.106Z,3.97
2023-04-20T13:13:58.247Z,3.40
2023-04-20T13:16:25.567Z,3.20
2023-04-20T13:18:52.575Z,4.03
2023-04-20T13:21:19.493Z,3.53
2023-04-20T13:23:46.381Z,3.38
2023-04-20T13:26:13.687Z,3.35
2023-04-20T13:28:40.947Z,4.43
2023-04-20T13:31:08.365Z,3.28
2023-04-20T13:33:35.850Z,4.47
2023-04-20T13:36:03.136Z,3.75
2023-04-20T13:38:30.315Z,4.30
2023-04-20T13:40:57.311Z,4.53
2023-04-20T13:43:25.377Z,4.38
2023-04-20T13:45:52.390Z,4.20
2023-04-20T13:48:19.420Z,3.72
2023-04-20T13:50:47.368Z,3.95
2023-04-20T13:53:14.373Z,4.20
2023-04-20T13:55:41.300Z,5.13
2023-04-20T13:58:08.206Z,3.47
2023-04-20T14:00:35.265Z,4.57
2023-04-20T14:03:02.607Z,3.70
2023-04-20T14:05:29.783Z,4.55
2023-04-20T14:07:56.722Z,4.50
2023-04-20T14:10:23.695Z,4.53
2023-04-20T14:12:50.951Z,4.70
2023-04-20T14:15:18.021Z,4.95
2023-04-20T14:17:45.686Z,4.68
2023-04-20T14:20:12.825Z,4.03
2023-04-20T14:22:39.856Z,4.45
2023-04-20T14:25:07.599Z,4.38
2023-04-20T14:27:34.662Z,3.83
2023-04-20T14:30:02.541Z,4.63
2023-04-20T14:32:31.381Z,4.25
2023-04-20T14:34:58.706Z,4.35
2023-04-20T14:37:27.318Z,4.65
2023-04-20T14:39:54.428Z,4.90
2023-04-20T14:42:22.019Z,3.92
2023-04-20T14:44:49.016Z,4.00
2023-04-20T14:47:16.212Z,4.75
2023-04-20T14:49:44.570Z,4.13
2023-04-20T14:52:11.446Z,4.10
2023-04-20T14:54:38.409Z,4.72
2023-04-20T14:57:05.409Z,4.22
2023-04-20T14:59:33.766Z,4.35
2023-04-20T15:02:02.977Z,4.30
2023-04-20T15:04:30.838Z,4.32
2023-04-20T15:06:58.320Z,4.60
2023-04-20T15:09:25.984Z,4.55
2023-04-20T15:11:52.907Z,3.88
2023-04-20T15:14:21.171Z,3.72
2023-04-20T15:16:48.176Z,4.60
2023-04-20T15:19:15.258Z,3.97
2023-04-20T15:21:42.771Z,3.63
2023-04-20T15:24:11.579Z,3.70
2023-04-20T15:26:38.543Z,3.60
2023-04-20T15:29:05.559Z,3.88
2023-04-20T15:31:32.688Z,4.25
2023-04-20T15:34:00.472Z,4.10
2023-04-20T15:36:27.759Z,4.10
2023-04-20T15:38:57.505Z,3.78
2023-04-20T15:41:25.065Z,4.93
2023-04-20T15:43:52.041Z,4.45
2023-04-20T15:46:23.277Z,4.22
2023-04-20T15:48:50.512Z,3.55
2023-04-20T15:51:20.073Z,4.22
2023-04-20T15:53:50.756Z,4.03
2023-04-20T15:56:22.507Z,4.15
2023-04-20T15:58:50.869Z,4.75
2023-04-20T16:01:19.691Z,4.15
2023-04-20T16:03:47.790Z,4.32
2023-04-20T16:06:14.863Z,4.50
2023-04-20T16:08:41.831Z,4.35
2023-04-20T16:11:09.143Z,4.35
2023-04-20T16:13:36.880Z,4.28
2023-04-20T16:16:04.110Z,5.03
2023-04-20T16:18:32.273Z,4.05
2023-04-20T16:20:59.388Z,3.92
2023-04-20T16:23:26.485Z,4.18
2023-04-20T16:25:53.443Z,3.75
2023-04-20T16:28:20.546Z,4.28
2023-04-20T16:30:47.529Z,4.25
2023-04-20T16:33:14.890Z,4.00
2023-04-20T16:35:41.937Z,4.45
2023-04-20T16:38:10.763Z,3.78
2023-04-20T16:40:37.816Z,4.45
2023-04-20T16:43:04.807Z,3.55
2023-04-20T16:45:33.474Z,4.78
2023-04-20T16:48:00.702Z,3.65
2023-04-20T16:50:28.235Z,4.22
2023-04-20T16:52:55.195Z,4.38
2023-04-20T16:55:22.161Z,4.32
2023-04-20T16:57:49.222Z,5.15
2023-04-20T17:00:17.011Z,4.43
2023-04-20T17:02:44.339Z,4.10
2023-04-20T17:05:11.423Z,4.32
2023-04-20T17:07:38.440Z,4.13
2023-04-20T17:10:06.087Z,4.38
2023-04-20T17:12:33.022Z,4.72
2023-04-20T17:15:00.736Z,4.20
2023-04-20T17:17:28.300Z,4.25
2023-04-20T17:19:56.431Z,4.63
2023-04-20T17:22:25.729Z,4.22
2023-04-20T17:24:53.740Z,4.30
2023-04-20T17:27:24.016Z,4.35
2023-04-20T17:29:51.631Z,5.00
2023-04-20T17:32:18.764Z,4.15
2023-04-20T17:34:48.359Z,4.10
2023-04-20T17:37:15.714Z,3.95
2023-04-20T17:39:42.871Z,3.53
2023-04-20T17:42:10.778Z,4.20
2023-04-20T17:44:38.297Z,3.97
2023-04-20T17:47:06.688Z,3.42
2023-04-20T17:49:34.919Z,4.10
2023-04-20T17:52:03.089Z,4.30
2023-04-20T17:54:30.085Z,4.10
2023-04-20T17:56:58.092Z,4.22
2023-04-20T17:59:25.110Z,3.65
2023-04-20T18:01:52.185Z,3.35
2023-04-20T18:04:19.500Z,4.28
2023-04-20T18:06:46.944Z,3.63
2023-04-20T18:09:14.218Z,3.60
2023-04-20T18:11:41.786Z,2.95
2023-04-20T18:14:08.895Z,3.63
2023-04-20T18:16:35.855Z,3.83
2023-04-20T18:19:03.126Z,3.88
2023-04-20T18:21:30.182Z,4.47
2023-04-20T18:23:57.084Z,4.07
2023-04-20T18:26:24.667Z,3.90
2023-04-20T18:28:51.686Z,4.40
2023-04-20T18:31:19.231Z,4.05
2023-04-20T18:33:46.367Z,4.68
2023-04-20T18:36:13.385Z,4.18
2023-04-20T18:38:40.628Z,5.03
2023-04-20T18:41:07.598Z,4.40
2023-04-20T18:43:34.641Z,4.75
2023-04-20T18:46:01.600Z,4.55
2023-04-20T18:48:28.543Z,4.60
2023-04-20T18:50:55.628Z,4.70
2023-04-20T18:53:22.621Z,5.28
2023-04-20T18:55:51.797Z,5.65
2023-04-20T18:58:18.733Z,5.43
2023-04-20T19:00:45.720Z,4.30
2023-04-20T19:03:12.916Z,5.25
2023-04-20T19:05:40.220Z,4.28
2023-04-20T19:08:07.147Z,6.00
2023-04-20T19:10:34.043Z,5.15
2023-04-20T19:13:01.053Z,4.90
2023-04-20T19:15:28.027Z,5.50
2023-04-20T19:17:56.409Z,5.47
2023-04-20T19:20:24.359Z,6.47
2023-04-20T19:22:51.563Z,5.28
2023-04-20T19:25:20.418Z,5.35
2023-04-20T19:27:47.531Z,5.80
2023-04-20T19:30:14.948Z,6.80
2023-04-20T19:32:41.977Z,6.13
2023-04-20T19:35:08.929Z,6.70
2023-04-20T19:37:35.898Z,6.57
2023-04-20T19:40:05.607Z,6.22
2023-04-20T19:42:32.657Z,6.47
2023-04-20T19:44:59.674Z,6.28
2023-04-20T19:47:27.404Z,7.20
2023-04-20T19:49:54.387Z,6.40
2023-04-20T19:52:21.360Z,6.18
2023-04-20T19:54:48.381Z,6.13
2023-04-20T19:57:15.296Z,6.38
2023-04-20T19:59:42.601Z,6.90
2023-04-20T20:02:09.694Z,6.60
2023-04-20T20:04:37.957Z,6.63
2023-04-20T20:07:05.175Z,7.25
2023-04-20T20:09:32.176Z,6.47
2023-04-20T20:12:01.098Z,7.50
2023-04-20T20:14:28.119Z,7.00
2023-04-20T20:16:56.582Z,6.60
2023-04-20T20:19:23.805Z,7.15
2023-04-20T20:21:51.174Z,7.65
2023-04-20T20:24:18.478Z,8.30
2023-04-20T20:26:45.415Z,8.27
2023-04-20T20:29:12.344Z,8.32
2023-04-20T20:31:39.399Z,8.35
2023-04-20T20:34:08.963Z,8.05
2023-04-20T20:36:36.414Z,9.02
2023-04-20T20:39:05.267Z,8.27
2023-04-20T20:41:32.910Z,9.55
2023-04-20T20:43:59.860Z,9.13
2023-04-20T20:46:27.052Z,8.18
2023-04-20T20:48:55.155Z,8.85
2023-04-20T20:51:22.079Z,9.32
2023-04-20T20:53:49.029Z,9.32
2023-04-20T20:56:16.087Z,9.00
2023-04-20T20:58:43.254Z,9.05
2023-04-20T21:01:10.362Z,9.27
2023-04-20T21:03:37.589Z,9.05
2023-04-20T21:06:05.088Z,8.23
2023-04-20T21:08:32.014Z,8.07
2023-04-20T21:10:59.027Z,8.85
2023-04-20T21:13:25.961Z,7.93
2023-04-20T21:15:52.913Z,8.52
2023-04-20T21:18:19.868Z,8.52
2023-04-20T21:20:46.778Z,9.52
2023-04-20T21:23:13.694Z,9.23
2023-04-20T21:25:40.600Z,7.75
2023-04-20T21:28:07.502Z,8.48
2023-04-20T21:30:35.156Z,8.27
2023-04-20T21:33:02.169Z,9.52
2023-04-20T21:35:29.168Z,8.27
2023-04-20T21:37:56.243Z,8.13
2023-04-20T21:40:25.189Z,8.25
2023-04-20T21:42:52.117Z,7.72
2023-04-20T21:45:19.139Z,8.20
2023-04-20T21:47:46.105Z,7.97
2023-04-20T21:50:13.033Z,8.45
2023-04-20T21:52:39.928Z,7.82
2023-04-20T21:55:07.402Z,8.82
2023-04-20T21:57:34.318Z,9.70
2023-04-20T22:00:01.212Z,8.73
2023-04-20T22:02:28.256Z,8.23
2023-04-20T22:04:56.103Z,8.55
2023-04-20T22:07:23.978Z,7.35
2023-04-20T22:09:51.346Z,8.55
2023-04-20T22:12:32.258Z,8.38
2023-04-20T22:15:03.396Z,8.45
2023-04-20T22:17:31.119Z,8.68
2023-04-20T22:19:58.047Z,8.68
2023-04-20T22:22:24.993Z,8.05
2023-04-20T22:24:51.915Z,8.73
2023-04-20T22:27:18.825Z,9.05
2023-04-20T22:29:45.786Z,9.32
2023-04-20T22:32:12.696Z,8.90
2023-04-20T22:34:39.663Z,9.00
2023-04-20T22:37:08.590Z,9.85
2023-04-20T22:39:35.649Z,9.35
2023-04-20T22:42:02.902Z,9.05
2023-04-20T22:44:29.877Z,9.48
2023-04-20T22:46:56.835Z,9.63
2023-04-20T22:49:23.781Z,9.60
2023-04-20T22:51:51.208Z,11.23
2023-04-20T22:54:18.151Z,9.20
2023-04-20T22:56:45.243Z,10.98
2023-04-20T22:59:12.231Z,10.50
2023-04-20T23:01:39.186Z,10.10
2023-04-20T23:04:06.358Z,9.60
2023-04-20T23:06:34.605Z,10.98
2023-04-20T23:09:01.783Z,11.35
2023-04-20T23:11:29.178Z,11.30
2023-04-20T23:13:56.250Z,10.98
2023-04-20T23:16:23.313Z,10.65
2023-04-20T23:18:50.327Z,9.95
2023-04-20T23:21:17.277Z,10.48
2023-04-20T23:23:44.192Z,11.20
2023-04-20T23:26:11.166Z,11.38
2023-04-20T23:28:39.056Z,11.10
2023-04-20T23:31:06.103Z,11.63
2023-04-20T23:33:33.041Z,11.50
2023-04-20T23:35:59.985Z,11.75
2023-04-20T23:38:26.854Z,12.60
2023-04-20T23:40:53.796Z,13.20
2023-04-20T23:43:20.698Z,12.88
2023-04-20T23:45:47.646Z,14.52
2023-04-20T23:48:14.585Z,13.23
2023-04-20T23:50:41.477Z,13.57
2023-04-20T23:53:10.172Z,13.85
2023-04-20T23:55:37.069Z,14.48
2023-04-20T23:58:04.059Z,15.30
